createdAt,value
2022-09-14T00:02:25.881Z,1.6
2022-09-14T00:08:09.569Z,1.7
2022-09-14T00:13:53.595Z,1.8
2022-09-14T00:19:37.085Z,1.5
2022-09-14T00:25:20.382Z,1.6
2022-09-14T00:31:04.754Z,1.6
2022-09-14T00:36:48.741Z,1.5
2022-09-14T00:42:32.085Z,1.6
2022-09-14T00:48:15.670Z,1.5
2022-09-14T00:53:58.957Z,1.8
2022-09-14T00:59:43.370Z,1.6
2022-09-14T01:05:31.616Z,1.7
2022-09-14T01:11:23.346Z,1.9
2022-09-14T01:17:08.896Z,2
2022-09-14T01:22:54.794Z,1.7
2022-09-14T01:28:42.278Z,1.9
2022-09-14T01:34:28.569Z,2.1
2022-09-14T01:40:17.282Z,2
2022-09-14T01:46:03.034Z,2.2
2022-09-14T01:51:47.878Z,1.9
2022-09-14T01:57:33.942Z,2.2
2022-09-14T02:03:20.502Z,2.2
2022-09-14T02:09:05.227Z,2.4
2022-09-14T02:14:48.618Z,2.2
2022-09-14T02:20:34.773Z,2.8
2022-09-14T02:26:18.991Z,2.8
2022-09-14T02:32:07.008Z,2.9
2022-09-14T02:37:53.834Z,2.6
2022-09-14T02:43:42.643Z,2.7
2022-09-14T02:49:29.016Z,2.7
2022-09-14T02:55:14.449Z,3.1
2022-09-14T03:00:57.817Z,2.9
2022-09-14T03:06:41.093Z,2.7
2022-09-14T03:12:24.430Z,2.9
2022-09-14T03:18:14.374Z,3
2022-09-14T03:23:57.876Z,3
2022-09-14T03:29:41.314Z,2.9
2022-09-14T03:35:24.621Z,2.8
2022-09-14T03:41:12.247Z,2.5
2022-09-14T03:46:55.611Z,2.5
2022-09-14T03:52:39.477Z,2.5
2022-09-14T03:58:22.506Z,2.5
2022-09-14T04:04:06.001Z,2.4
2022-09-14T04:09:49.458Z,2.4
2022-09-14T04:15:32.644Z,2.2
2022-09-14T04:21:17.108Z,1.8
2022-09-14T04:27:00.458Z,2
2022-09-14T04:32:43.634Z,1.8
2022-09-14T04:38:27.071Z,1.9
2022-09-14T04:44:10.224Z,1.8
2022-09-14T04:49:54.415Z,1.5
2022-09-14T04:55:37.852Z,1.5
2022-09-14T05:01:22.437Z,1.4
2022-09-14T05:07:05.910Z,1.5
2022-09-14T05:12:48.913Z,1.5
2022-09-14T05:18:32.353Z,1.3
2022-09-14T05:24:17.208Z,1.2
2022-09-14T05:30:00.558Z,1.2
2022-09-14T05:35:43.892Z,1.1
2022-09-14T05:41:27.001Z,1.1
2022-09-14T05:47:10.206Z,1
2022-09-14T05:52:53.350Z,1
2022-09-14T05:58:36.900Z,1.1
2022-09-14T06:04:20.437Z,1.2
2022-09-14T06:10:03.673Z,1.1
2022-09-14T06:15:46.904Z,1.4
2022-09-14T06:21:31.034Z,1.2
2022-09-14T06:27:14.382Z,2.1
2022-09-14T06:32:58.934Z,2.2
2022-09-14T06:38:42.570Z,2.3
2022-09-14T06:44:26.054Z,2.4
2022-09-14T06:50:10.861Z,2.3
2022-09-14T06:55:54.388Z,2.5
2022-09-14T07:01:38.064Z,2.4
2022-09-14T07:07:21.344Z,2.2
2022-09-14T07:13:04.478Z,2.3
2022-09-14T07:18:47.727Z,2.1
2022-09-14T07:24:31.041Z,2
2022-09-14T07:30:14.733Z,1.9
2022-09-14T07:36:02.819Z,1.9
2022-09-14T07:41:46.426Z,2.1
2022-09-14T07:47:36.046Z,2.2
2022-09-14T07:53:19.162Z,2.2
2022-09-14T07:59:34.238Z,2.2
2022-09-14T08:05:06.149Z,1.9
2022-09-14T08:10:49.314Z,2
2022-09-14T08:16:34.015Z,2.1
2022-09-14T08:22:17.847Z,2
2022-09-14T08:28:00.975Z,2
2022-09-14T08:33:46.764Z,1.9
2022-09-14T08:39:30.003Z,1.7
2022-09-14T08:45:15.212Z,1.8
2022-09-14T08:50:58.403Z,1.7
2022-09-14T08:56:44.530Z,1.8
2022-09-14T09:02:44.063Z,1.7
2022-09-14T09:08:32.455Z,1.7
2022-09-14T09:14:20.627Z,1.7
2022-09-14T09:20:07.995Z,1.5
2022-09-14T09:25:59.146Z,2
2022-09-14T09:31:45.083Z,1.7
2022-09-14T09:37:28.582Z,1.6
2022-09-14T09:43:18.665Z,1.8
2022-09-14T09:49:12.291Z,1.5
2022-09-14T09:54:57.235Z,1.6
2022-09-14T10:00:40.576Z,1.8
2022-09-14T10:06:23.934Z,1.6
2022-09-14T10:12:07.279Z,1.6
2022-09-14T10:18:03.970Z,2.7
2022-09-14T10:23:47.234Z,2.6
2022-09-14T10:29:36.132Z,2.2
2022-09-14T10:35:20.327Z,2.3
2022-09-14T10:41:09.753Z,2.2
2022-09-14T10:47:04.658Z,1.8
2022-09-14T10:52:52.023Z,1.9
2022-09-14T10:58:41.699Z,1.7
2022-09-14T11:04:32.321Z,2.5
2022-09-14T11:10:21.324Z,1.8
2022-09-14T11:16:08.615Z,1.9
2022-09-14T11:21:56.587Z,2.2
2022-09-14T11:27:43.591Z,2.1
2022-09-14T11:33:32.962Z,2.5
2022-09-14T11:39:19.763Z,2.6
2022-09-14T11:45:05.173Z,2.9
2022-09-14T11:50:51.325Z,2.6
2022-09-14T11:56:35.038Z,2.7
2022-09-14T12:02:30.407Z,2.9
2022-09-14T12:08:37.906Z,2.8
2022-09-14T12:14:29.539Z,2.8
2022-09-14T12:20:36.944Z,2.6
2022-09-14T12:26:37.790Z,2.9
2022-09-14T12:32:34.554Z,2.5
2022-09-14T12:38:29.473Z,2.6
2022-09-14T12:44:24.606Z,2.9
2022-09-14T12:50:11.697Z,3.1
2022-09-14T12:55:58.266Z,3.1
2022-09-14T13:01:46.225Z,2.9
2022-09-14T13:07:31.688Z,3.4
2022-09-14T13:13:19.048Z,3
2022-09-14T13:19:13.003Z,3.6
2022-09-14T13:24:57.207Z,4
2022-09-14T13:30:41.535Z,3.8
2022-09-14T13:36:26.796Z,3.6
2022-09-14T13:42:10.908Z,3.5
2022-09-14T13:47:54.951Z,3.2
2022-09-14T13:53:43.897Z,2.9
2022-09-14T13:59:27.465Z,2.9
2022-09-14T14:05:21.568Z,2.7
2022-09-14T14:11:06.669Z,2.7
2022-09-14T14:17:01.386Z,2.4
2022-09-14T14:22:49.974Z,2.4
2022-09-14T14:28:33.291Z,2.5
2022-09-14T14:34:18.794Z,2
2022-09-14T14:40:02.388Z,2.1
2022-09-14T14:45:47.229Z,2.1
2022-09-14T14:51:30.662Z,2.1
2022-09-14T14:57:14.114Z,2.2
2022-09-14T15:02:57.531Z,2.1
2022-09-14T15:08:41.003Z,2.1
2022-09-14T15:14:28.884Z,2
2022-09-14T15:20:12.967Z,2
2022-09-14T15:25:56.431Z,1.9
2022-09-14T15:31:40.398Z,1.7
2022-09-14T15:37:23.830Z,1.8
2022-09-14T15:43:06.883Z,1.7
2022-09-14T15:48:50.258Z,2.1
2022-09-14T15:54:36.355Z,1.7
2022-09-14T16:00:20.244Z,1.8
2022-09-14T16:06:07.407Z,1.8
2022-09-14T16:11:51.363Z,2.1
2022-09-14T16:17:35.737Z,1.9
2022-09-14T16:23:18.531Z,2.1
2022-09-14T16:29:01.763Z,1.9
2022-09-14T16:34:45.170Z,1.9
2022-09-14T16:40:29.996Z,1.9
2022-09-14T16:46:14.529Z,1.9
2022-09-14T16:51:58.379Z,1.9
2022-09-14T16:57:41.706Z,2.2
2022-09-14T17:03:31.060Z,2.1
2022-09-14T17:09:17.257Z,2.1
2022-09-14T17:15:05.566Z,2
2022-09-14T17:20:58.785Z,2
2022-09-14T17:26:42.947Z,2
2022-09-14T17:32:27.094Z,2.2
2022-09-14T17:38:23.988Z,2.2
2022-09-14T17:44:12.523Z,2.2
2022-09-14T17:50:01.603Z,2.3
2022-09-14T17:55:45.671Z,2.4
2022-09-14T18:01:32.989Z,2.8
2022-09-14T18:07:18.987Z,2.7
2022-09-14T18:13:03.061Z,2.4
2022-09-14T18:18:47.050Z,2.8
2022-09-14T18:24:30.866Z,2.6
2022-09-14T18:30:15.131Z,2.3
2022-09-14T18:35:58.872Z,2.5
2022-09-14T18:41:42.016Z,2.6
2022-09-14T18:47:25.569Z,2.5
2022-09-14T18:53:08.738Z,2.5
2022-09-14T18:58:52.100Z,2.5
2022-09-14T19:04:34.938Z,2.5
2022-09-14T19:10:18.424Z,2.5
2022-09-14T19:16:06.042Z,2.5
2022-09-14T19:21:50.530Z,2.7
2022-09-14T19:27:33.806Z,2.8
2022-09-14T19:33:18.166Z,2.8
2022-09-14T19:39:01.561Z,2.9
2022-09-14T19:44:44.782Z,2.6
2022-09-14T19:50:28.203Z,2.7
2022-09-14T19:56:13.640Z,2.4
2022-09-14T20:01:57.372Z,2.8
2022-09-14T20:07:41.055Z,2.6
2022-09-14T20:13:24.589Z,2.5
2022-09-14T20:19:09.694Z,2.7
2022-09-14T20:25:00.292Z,2.8
2022-09-14T20:30:52.214Z,2.9
2022-09-14T20:36:36.162Z,3.2
2022-09-14T20:42:19.660Z,2.9
2022-09-14T20:48:03.291Z,3
2022-09-14T20:53:46.724Z,2.9
2022-09-14T20:59:30.074Z,3
2022-09-14T21:05:13.729Z,3.1
2022-09-14T21:10:57.391Z,3
2022-09-14T21:16:42.274Z,3.2
2022-09-14T21:22:25.774Z,3.4
2022-09-14T21:28:09.220Z,3.5
2022-09-14T21:33:53.747Z,3.5
2022-09-14T21:39:37.251Z,3.7
2022-09-14T21:45:20.674Z,3.5
2022-09-14T21:51:16.234Z,3.7
2022-09-14T21:56:59.538Z,3.9
2022-09-14T22:02:42.954Z,4.5
2022-09-14T22:08:27.738Z,5
2022-09-14T22:14:12.430Z,5.3
2022-09-14T22:19:55.519Z,6.1
2022-09-14T22:25:39.740Z,6.4
2022-09-14T22:31:23.946Z,6.6
2022-09-14T22:37:07.445Z,6.2
2022-09-14T22:42:50.594Z,6.2
2022-09-14T22:48:34.345Z,6.2
2022-09-14T22:54:17.569Z,5.9
2022-09-14T23:00:01.085Z,6.3
2022-09-14T23:05:49.283Z,6
2022-09-14T23:11:32.909Z,5.5
2022-09-14T23:17:16.446Z,5.7
2022-09-14T23:22:59.771Z,5.6
2022-09-14T23:28:43.188Z,5.7
2022-09-14T23:34:26.879Z,5.5
2022-09-14T23:40:10.893Z,5.6
2022-09-14T23:45:54.586Z,5.1
2022-09-14T23:51:37.902Z,5.1
2022-09-14T23:57:21.270Z,5.6
